createdAt,value
2023-04-27T00:05:39.608Z,6.43
2023-04-27T00:11:00.751Z,6.40
2023-04-27T00:16:21.633Z,6.32
2023-04-27T00:21:42.290Z,6.39
2023-04-27T00:27:03.263Z,6.30
2023-04-27T00:32:24.288Z,6.15
2023-04-27T00:37:44.898Z,6.22
2023-04-27T00:43:05.582Z,6.41
2023-04-27T00:48:26.621Z,6.42
2023-04-27T00:53:47.588Z,6.32
2023-04-27T00:59:09.194Z,6.40
2023-04-27T01:04:32.422Z,6.47
2023-04-27T01:09:53.333Z,6.26
2023-04-27T01:15:14.077Z,6.30
2023-04-27T01:20:34.735Z,6.34
2023-04-27T01:25:55.975Z,6.20
2023-04-27T01:31:16.693Z,6.18
2023-04-27T01:36:37.539Z,6.12
2023-04-27T01:41:58.838Z,6.12
2023-04-27T01:47:19.542Z,6.05
2023-04-27T01:52:40.308Z,5.92
2023-04-27T01:58:01.026Z,6.00
2023-04-27T02:03:22.539Z,6.10
2023-04-27T02:08:44.455Z,6.01
2023-04-27T02:14:05.156Z,6.18
2023-04-27T02:19:25.732Z,5.90
2023-04-27T02:24:46.617Z,5.67
2023-04-27T02:30:09.124Z,5.55
2023-04-27T02:35:32.526Z,5.45
2023-04-27T02:40:55.134Z,5.48
2023-04-27T02:46:16.347Z,5.67
2023-04-27T02:51:37.399Z,5.61
2023-04-27T02:56:58.948Z,5.70
2023-04-27T03:02:20.055Z,5.67
2023-04-27T03:07:41.172Z,5.57
2023-04-27T03:13:01.802Z,5.43
2023-04-27T03:18:22.595Z,5.28
2023-04-27T03:23:43.349Z,5.25
2023-04-27T03:29:04.092Z,5.35
2023-04-27T03:34:24.780Z,5.62
2023-04-27T03:39:45.775Z,5.49
2023-04-27T03:45:08.138Z,5.49
2023-04-27T03:50:30.270Z,5.44
2023-04-27T03:55:51.614Z,5.43
2023-04-27T04:01:12.363Z,5.51
2023-04-27T04:06:33.117Z,5.50
2023-04-27T04:11:53.787Z,5.44
2023-04-27T04:17:15.048Z,5.38
2023-04-27T04:22:35.788Z,5.51
2023-04-27T04:27:56.815Z,5.79
2023-04-27T04:33:18.704Z,5.74
2023-04-27T04:38:39.622Z,5.67
2023-04-27T04:44:00.738Z,5.60
2023-04-27T04:49:22.467Z,5.65
2023-04-27T04:54:44.018Z,5.74
2023-04-27T05:00:11.145Z,5.83
2023-04-27T05:05:31.810Z,5.95
2023-04-27T05:10:53.695Z,6.03
2023-04-27T05:16:14.282Z,6.19
2023-04-27T05:21:35.003Z,6.36
2023-04-27T05:26:55.607Z,6.54
2023-04-27T05:32:16.525Z,6.67
2023-04-27T05:37:37.192Z,6.74
2023-04-27T05:42:58.040Z,6.77
2023-04-27T05:48:19.673Z,7.05
2023-04-27T05:53:41.300Z,7.22
2023-04-27T05:59:02.880Z,7.39
2023-04-27T06:04:23.666Z,7.77
2023-04-27T06:09:44.803Z,8.15
2023-04-27T06:15:09.935Z,8.62
2023-04-27T06:20:31.663Z,9.09
2023-04-27T06:25:52.370Z,9.13
2023-04-27T06:31:13.098Z,9.25
2023-04-27T06:36:33.906Z,9.41
2023-04-27T06:41:54.881Z,9.43
2023-04-27T06:47:15.692Z,9.79
2023-04-27T06:52:36.363Z,9.74
2023-04-27T06:57:57.297Z,9.70
2023-04-27T07:03:18.323Z,9.39
2023-04-27T07:08:39.297Z,9.74
2023-04-27T07:13:59.939Z,9.54
2023-04-27T07:19:20.628Z,9.83
2023-04-27T07:24:41.981Z,9.65
2023-04-27T07:30:03.166Z,9.73
2023-04-27T07:35:24.122Z,9.74
2023-04-27T07:40:45.421Z,9.94
2023-04-27T07:46:06.576Z,10.34
2023-04-27T07:51:30.396Z,9.96
2023-04-27T07:56:51.802Z,10.16
2023-04-27T08:07:44.095Z,10.29
2023-04-27T08:13:05.644Z,10.12
2023-04-27T08:18:27.251Z,10.10
2023-04-27T08:23:47.909Z,10.18
2023-04-27T08:29:19.217Z,10.11
2023-04-27T08:34:47.563Z,10.29
2023-04-27T08:40:10.014Z,10.26
2023-04-27T08:45:30.699Z,10.25
2023-04-27T08:50:52.948Z,10.37
2023-04-27T08:56:13.551Z,10.41
2023-04-27T09:01:34.400Z,10.42
2023-04-27T09:06:55.097Z,10.35
2023-04-27T09:12:20.447Z,10.34
2023-04-27T09:17:41.352Z,10.64
2023-04-27T09:23:02.013Z,10.48
2023-04-27T09:28:23.428Z,10.58
2023-04-27T09:33:48.794Z,10.90
2023-04-27T09:39:10.170Z,10.98
2023-04-27T09:44:32.020Z,10.79
2023-04-27T09:49:52.880Z,10.61
2023-04-27T09:55:21.116Z,10.65
2023-04-27T10:01:04.906Z,10.43
2023-04-27T10:06:51.067Z,10.32
2023-04-27T10:12:19.368Z,10.45
2023-04-27T10:17:48.589Z,10.58
2023-04-27T10:23:09.340Z,10.87
2023-04-27T10:28:38.641Z,11.04
2023-04-27T10:34:10.008Z,10.90
2023-04-27T10:39:46.832Z,10.84
2023-04-27T10:45:09.847Z,11.12
2023-04-27T10:50:32.065Z,11.25
2023-04-27T10:55:59.295Z,11.26
2023-04-27T11:01:27.353Z,11.00
2023-04-27T11:06:48.112Z,10.76
2023-04-27T11:12:12.947Z,10.68
2023-04-27T11:17:34.171Z,10.58
2023-04-27T11:22:55.285Z,10.42
2023-04-27T11:28:26.216Z,10.42
2023-04-27T11:33:51.719Z,10.78
2023-04-27T11:39:19.661Z,11.95
2023-04-27T11:44:41.027Z,11.88
2023-04-27T11:50:07.349Z,11.56
2023-04-27T11:55:28.764Z,11.59
2023-04-27T12:00:49.639Z,11.69
2023-04-27T12:06:31.829Z,11.76
2023-04-27T12:11:51.571Z,11.76
2023-04-27T12:17:12.619Z,11.79
2023-04-27T12:22:33.428Z,11.89
2023-04-27T12:27:54.566Z,11.87
2023-04-27T12:33:16.734Z,11.74
2023-04-27T12:38:37.614Z,11.51
2023-04-27T12:43:58.448Z,11.53
2023-04-27T12:49:19.197Z,11.64
2023-04-27T12:54:40.179Z,11.60
2023-04-27T13:00:02.197Z,11.63
2023-04-27T13:05:23.339Z,11.85
2023-04-27T13:10:44.526Z,11.97
2023-04-27T13:16:05.571Z,11.94
2023-04-27T13:21:27.076Z,11.86
2023-04-27T13:26:48.614Z,11.70
2023-04-27T13:32:09.433Z,11.56
2023-04-27T13:37:30.100Z,11.41
2023-04-27T13:42:51.157Z,12.03
2023-04-27T13:48:12.809Z,12.00
2023-04-27T13:53:33.475Z,11.87
2023-04-27T13:58:54.188Z,11.74
2023-04-27T14:04:14.975Z,11.65
2023-04-27T14:09:36.147Z,11.63
2023-04-27T14:14:58.386Z,11.63
2023-04-27T14:20:19.097Z,11.72
2023-04-27T14:25:39.744Z,11.84
2023-04-27T14:31:00.825Z,11.84
2023-04-27T14:36:21.583Z,11.84
2023-04-27T14:41:42.334Z,11.76
2023-04-27T14:47:03.247Z,11.78
2023-04-27T14:52:24.244Z,11.69
2023-04-27T14:57:45.058Z,11.78
2023-04-27T15:03:06.251Z,11.94
2023-04-27T15:08:27.597Z,11.85
2023-04-27T15:13:48.296Z,11.85
2023-04-27T15:19:09.192Z,11.90
2023-04-27T15:24:29.935Z,11.92
2023-04-27T15:29:53.032Z,12.03
2023-04-27T15:35:13.722Z,11.97
2023-04-27T15:40:34.984Z,11.97
2023-04-27T15:45:55.751Z,11.85
2023-04-27T15:51:16.801Z,11.71
2023-04-27T15:56:37.549Z,11.72
2023-04-27T16:01:58.272Z,11.81
2023-04-27T16:07:18.993Z,11.86
2023-04-27T16:12:39.773Z,11.89
2023-04-27T16:18:00.751Z,11.90
2023-04-27T16:23:21.804Z,11.80
2023-04-27T16:28:43.189Z,11.71
2023-04-27T16:34:04.172Z,11.70
2023-04-27T16:39:25.272Z,11.72
2023-04-27T16:44:47.081Z,11.78
2023-04-27T16:50:08.011Z,11.75
2023-04-27T16:55:29.100Z,11.74
2023-04-27T17:00:49.685Z,11.76
2023-04-27T17:06:10.395Z,11.82
2023-04-27T17:11:31.747Z,11.78
2023-04-27T17:16:52.516Z,11.74
2023-04-27T17:22:14.871Z,11.80
2023-04-27T17:27:35.879Z,11.82
2023-04-27T17:32:56.611Z,11.71
2023-04-27T17:38:17.253Z,11.87
2023-04-27T17:43:38.107Z,11.84
2023-04-27T17:48:58.853Z,11.79
2023-04-27T17:54:19.552Z,11.44
2023-04-27T17:59:40.763Z,11.15
2023-04-27T18:05:01.537Z,11.05
2023-04-27T18:10:22.291Z,11.03
2023-04-27T18:15:43.068Z,11.02
2023-04-27T18:21:03.861Z,10.68
2023-04-27T18:26:24.787Z,10.50
2023-04-27T18:31:46.158Z,10.29
2023-04-27T18:37:06.885Z,10.25
2023-04-27T18:42:27.490Z,10.32
2023-04-27T18:47:48.315Z,10.43
2023-04-27T18:53:09.042Z,10.48
2023-04-27T18:58:29.867Z,10.48
2023-04-27T19:03:51.164Z,10.45
2023-04-27T19:09:12.235Z,10.40
2023-04-27T19:14:33.058Z,10.35
2023-04-27T19:19:53.656Z,10.38
2023-04-27T19:25:14.433Z,10.40
2023-04-27T19:30:35.106Z,10.34
2023-04-27T19:35:56.001Z,10.30
2023-04-27T19:41:17.592Z,10.11
2023-04-27T19:46:38.656Z,9.96
2023-04-27T19:52:03.299Z,9.99
2023-04-27T19:57:27.261Z,9.89
2023-04-27T20:02:50.551Z,9.89
2023-04-27T20:08:11.612Z,9.85
2023-04-27T20:13:32.440Z,9.83
2023-04-27T20:18:53.261Z,9.68
2023-04-27T20:24:14.391Z,9.56
2023-04-27T20:29:35.555Z,9.30
2023-04-27T20:34:56.451Z,9.17
2023-04-27T20:40:18.246Z,9.24
2023-04-27T20:45:39.083Z,8.97
2023-04-27T20:51:00.058Z,8.91
2023-04-27T20:56:20.823Z,8.92
2023-04-27T21:01:41.552Z,8.89
2023-04-27T21:07:02.349Z,8.83
2023-04-27T21:12:23.148Z,8.73
2023-04-27T21:17:44.016Z,8.44
2023-04-27T21:23:04.592Z,8.38
2023-04-27T21:28:25.353Z,8.19
2023-04-27T21:33:46.045Z,8.11
2023-04-27T21:39:06.837Z,8.17
2023-04-27T21:44:27.623Z,8.16
2023-04-27T21:49:50.188Z,8.09
2023-04-27T21:55:12.029Z,7.97
2023-04-27T22:00:33.452Z,7.92
2023-04-27T22:05:57.576Z,7.94
2023-04-27T22:11:18.240Z,7.97
2023-04-27T22:16:38.923Z,7.92
2023-04-27T22:21:59.721Z,7.87
2023-04-27T22:27:20.711Z,7.84
2023-04-27T22:32:42.394Z,7.84
2023-04-27T22:38:03.278Z,7.91
2023-04-27T22:43:24.138Z,7.71
2023-04-27T22:48:45.127Z,7.68
2023-04-27T22:54:06.256Z,7.81
2023-04-27T22:59:26.815Z,7.87
2023-04-27T23:04:48.281Z,7.92
2023-04-27T23:10:10.400Z,7.87
2023-04-27T23:15:31.779Z,7.78
2023-04-27T23:20:56.479Z,7.85
2023-04-27T23:26:17.422Z,7.84
2023-04-27T23:31:38.306Z,7.95
2023-04-27T23:36:59.333Z,8.04
2023-04-27T23:42:19.964Z,8.14
2023-04-27T23:47:40.732Z,8.25
2023-04-27T23:53:01.592Z,8.37
2023-04-27T23:58:24.819Z,8.37
